createdAt,value
2018-09-26T00:01:54.745Z,6.74
2018-09-26T00:04:27.547Z,6.68
2018-09-26T00:06:55.826Z,6.69
2018-09-26T00:09:23.383Z,6.69
2018-09-26T00:11:50.915Z,6.74
2018-09-26T00:14:18.458Z,6.70
2018-09-26T00:16:46.003Z,6.61
2018-09-26T00:19:13.707Z,6.61
2018-09-26T00:21:41.262Z,6.58
2018-09-26T00:24:08.819Z,6.62
2018-09-26T00:26:36.357Z,6.57
2018-09-26T00:29:04.478Z,6.53
2018-09-26T00:31:32.069Z,6.53
2018-09-26T00:33:59.618Z,6.50
2018-09-26T00:36:27.388Z,6.51
2018-09-26T00:38:55.006Z,6.54
2018-09-26T00:41:22.605Z,6.53
2018-09-26T00:43:50.127Z,6.57
2018-09-26T00:46:17.690Z,6.53
2018-09-26T00:48:45.205Z,6.52
2018-09-26T00:51:12.766Z,6.56
2018-09-26T00:53:40.318Z,6.52
2018-09-26T00:56:07.885Z,6.45
2018-09-26T00:58:35.425Z,6.48
2018-09-26T01:01:03.086Z,6.49
2018-09-26T01:03:30.813Z,6.57
2018-09-26T01:05:58.386Z,6.54
2018-09-26T01:08:25.938Z,6.54
2018-09-26T01:10:53.591Z,6.60
2018-09-26T01:13:21.104Z,6.53
2018-09-26T01:15:48.642Z,6.51
2018-09-26T01:18:16.154Z,6.57
2018-09-26T01:20:44.042Z,6.56
2018-09-26T01:23:11.909Z,6.50
2018-09-26T01:25:39.849Z,6.49
2018-09-26T01:28:07.396Z,6.46
2018-09-26T01:30:34.947Z,6.47
2018-09-26T01:33:02.606Z,6.44
2018-09-26T01:35:30.153Z,6.49
2018-09-26T01:37:57.747Z,6.46
2018-09-26T01:40:25.342Z,6.43
2018-09-26T01:42:52.906Z,6.36
2018-09-26T01:45:20.470Z,6.10
2018-09-26T01:47:48.103Z,6.14
2018-09-26T01:50:15.641Z,6.19
2018-09-26T01:52:43.185Z,6.39
2018-09-26T01:55:10.774Z,6.28
2018-09-26T01:57:38.337Z,6.17
2018-09-26T02:00:06.147Z,6.26
2018-09-26T02:02:33.951Z,6.31
2018-09-26T02:05:01.850Z,6.16
2018-09-26T02:07:29.391Z,6.08
2018-09-26T02:09:56.969Z,6.03
2018-09-26T02:12:24.617Z,6.00
2018-09-26T02:14:52.170Z,5.98
2018-09-26T02:17:19.754Z,5.96
2018-09-26T02:19:47.347Z,6.02
2018-09-26T02:22:15.198Z,6.00
2018-09-26T02:24:42.718Z,5.87
2018-09-26T02:27:10.272Z,5.62
2018-09-26T02:29:37.862Z,5.56
2018-09-26T02:32:05.599Z,5.49
2018-09-26T02:34:33.197Z,5.44
2018-09-26T02:37:00.798Z,5.69
2018-09-26T02:39:28.326Z,5.82
2018-09-26T02:41:55.921Z,5.71
2018-09-26T02:44:23.463Z,5.80
2018-09-26T02:46:51.027Z,5.71
2018-09-26T02:49:19.582Z,5.71
2018-09-26T02:51:47.147Z,5.72
2018-09-26T02:54:14.658Z,5.78
2018-09-26T02:56:42.199Z,5.68
2018-09-26T02:59:09.743Z,5.62
2018-09-26T03:01:37.287Z,5.68
2018-09-26T03:04:04.879Z,5.63
2018-09-26T03:06:32.413Z,5.53
2018-09-26T03:08:59.937Z,5.34
2018-09-26T03:11:27.467Z,5.18
2018-09-26T03:13:55.071Z,4.89
2018-09-26T03:16:22.605Z,4.88
2018-09-26T03:18:50.142Z,4.93
2018-09-26T03:21:17.722Z,4.83
2018-09-26T03:23:45.239Z,4.85
2018-09-26T03:26:12.831Z,4.82
2018-09-26T03:28:40.359Z,4.64
2018-09-26T03:31:07.917Z,4.68
2018-09-26T03:33:35.555Z,4.94
2018-09-26T03:36:03.095Z,4.79
2018-09-26T03:38:30.658Z,4.61
2018-09-26T03:40:58.190Z,4.53
2018-09-26T03:43:25.727Z,4.57
2018-09-26T03:45:53.261Z,4.53
2018-09-26T03:48:20.786Z,4.41
2018-09-26T03:50:48.497Z,4.31
2018-09-26T03:53:16.011Z,4.30
2018-09-26T03:55:43.565Z,4.17
2018-09-26T03:58:11.132Z,4.08
2018-09-26T04:00:39.065Z,4.08
2018-09-26T04:03:06.613Z,3.97
2018-09-26T04:05:34.153Z,4.02
2018-09-26T04:08:01.770Z,3.98
2018-09-26T04:10:29.291Z,3.91
2018-09-26T04:12:56.892Z,3.86
2018-09-26T04:15:24.370Z,3.81
2018-09-26T04:17:51.914Z,3.79
2018-09-26T04:20:19.811Z,3.81
2018-09-26T04:22:47.344Z,3.77
2018-09-26T04:25:14.894Z,3.67
2018-09-26T04:27:42.599Z,3.61
2018-09-26T04:30:10.078Z,3.54
2018-09-26T04:32:38.178Z,3.53
2018-09-26T04:35:05.768Z,3.49
2018-09-26T04:37:33.571Z,3.40
2018-09-26T04:40:01.131Z,3.43
2018-09-26T04:42:28.683Z,3.35
2018-09-26T04:44:56.222Z,3.25
2018-09-26T04:47:23.879Z,3.18
2018-09-26T04:49:51.438Z,3.14
2018-09-26T04:52:19.027Z,3.06
2018-09-26T04:54:46.695Z,3.11
2018-09-26T04:57:14.480Z,3.06
2018-09-26T04:59:42.057Z,2.98
2018-09-26T05:02:09.610Z,2.92
2018-09-26T05:04:37.206Z,2.87
2018-09-26T05:07:04.847Z,2.82
2018-09-26T05:09:32.366Z,2.82
2018-09-26T05:11:59.981Z,2.79
2018-09-26T05:14:27.525Z,2.77
2018-09-26T05:16:55.054Z,2.74
2018-09-26T05:19:22.725Z,2.65
2018-09-26T05:21:50.319Z,2.60
2018-09-26T05:24:17.906Z,2.67
2018-09-26T05:26:45.470Z,2.72
2018-09-26T05:29:12.981Z,2.65
2018-09-26T05:31:41.317Z,2.65
2018-09-26T05:34:08.873Z,2.58
2018-09-26T05:36:36.503Z,2.69
2018-09-26T05:39:05.967Z,2.69
2018-09-26T05:41:33.518Z,2.68
2018-09-26T05:44:01.000Z,2.69
2018-09-26T05:46:28.566Z,2.76
2018-09-26T05:48:56.321Z,2.82
2018-09-26T05:51:24.347Z,3.21
2018-09-26T05:53:51.931Z,3.69
2018-09-26T05:56:19.483Z,4.07
2018-09-26T05:58:47.021Z,4.56
2018-09-26T06:01:14.555Z,4.87
2018-09-26T06:03:42.097Z,5.16
2018-09-26T06:06:09.642Z,5.52
2018-09-26T06:08:37.807Z,5.46
2018-09-26T06:11:05.439Z,5.67
2018-09-26T06:13:32.966Z,6.08
2018-09-26T06:16:00.531Z,6.28
2018-09-26T06:18:28.089Z,6.89
2018-09-26T06:20:55.663Z,7.15
2018-09-26T06:23:23.185Z,7.32
2018-09-26T06:25:50.805Z,7.47
2018-09-26T06:28:18.350Z,7.48
2018-09-26T06:30:45.939Z,7.79
2018-09-26T06:33:13.444Z,7.74
2018-09-26T06:35:41.097Z,7.65
2018-09-26T06:38:08.607Z,8.12
2018-09-26T06:40:36.332Z,8.14
2018-09-26T06:43:03.764Z,8.42
2018-09-26T06:45:31.305Z,8.71
2018-09-26T06:47:59.026Z,8.90
2018-09-26T06:50:26.572Z,8.95
2018-09-26T06:52:54.134Z,9.19
2018-09-26T06:55:21.790Z,9.44
2018-09-26T06:57:49.351Z,9.37
2018-09-26T07:00:16.910Z,9.60
2018-09-26T07:02:44.813Z,9.88
2018-09-26T07:05:12.402Z,10.08
2018-09-26T07:07:39.926Z,10.62
2018-09-26T07:10:07.531Z,10.90
2018-09-26T07:12:35.062Z,11.23
2018-09-26T07:15:02.838Z,11.54
2018-09-26T07:17:30.413Z,12.58
2018-09-26T07:19:58.010Z,13.14
2018-09-26T07:22:25.577Z,13.90
2018-09-26T07:24:53.156Z,14.93
2018-09-26T07:27:20.795Z,15.79
2018-09-26T07:29:48.335Z,16.32
2018-09-26T07:32:15.909Z,16.99
2018-09-26T07:34:43.463Z,17.25
2018-09-26T07:37:10.970Z,17.86
2018-09-26T07:39:38.578Z,18.66
2018-09-26T07:42:06.234Z,17.97
2018-09-26T07:44:33.782Z,18.68
2018-09-26T07:47:01.354Z,18.98
2018-09-26T07:49:28.995Z,19.51
2018-09-26T07:51:56.646Z,19.74
2018-09-26T07:54:24.203Z,19.47
2018-09-26T07:56:51.750Z,18.92
2018-09-26T07:59:19.327Z,19.74
2018-09-26T08:01:46.913Z,20.05
2018-09-26T08:04:14.502Z,20.80
2018-09-26T08:06:42.042Z,21.26
2018-09-26T08:09:10.406Z,21.30
2018-09-26T08:11:38.263Z,20.66
2018-09-26T08:14:06.174Z,21.09
2018-09-26T08:16:34.002Z,20.31
2018-09-26T08:19:01.675Z,21.16
2018-09-26T08:21:29.413Z,22.10
2018-09-26T08:23:57.058Z,21.65
2018-09-26T08:26:24.649Z,20.93
2018-09-26T08:28:52.195Z,20.95
2018-09-26T08:31:19.734Z,21.85
2018-09-26T08:33:47.467Z,22.91
2018-09-26T08:36:15.201Z,24.01
2018-09-26T08:38:42.752Z,24.60
2018-09-26T08:41:10.307Z,24.19
2018-09-26T08:43:37.850Z,24.29
2018-09-26T08:46:05.418Z,24.85
2018-09-26T08:48:33.022Z,25.44
2018-09-26T08:51:00.729Z,26.02
2018-09-26T08:53:28.344Z,26.36
2018-09-26T08:55:55.931Z,25.49
2018-09-26T08:58:23.458Z,25.21
2018-09-26T09:00:51.110Z,26.19
2018-09-26T09:03:18.678Z,26.82
2018-09-26T09:05:46.281Z,26.92
2018-09-26T09:08:13.824Z,25.75
2018-09-26T09:10:41.640Z,26.01
2018-09-26T09:13:09.184Z,25.37
2018-09-26T09:15:36.705Z,27.59
2018-09-26T09:18:04.254Z,28.04
2018-09-26T09:20:31.786Z,28.66
2018-09-26T09:22:59.338Z,28.45
2018-09-26T09:25:26.909Z,28.22
2018-09-26T09:27:54.478Z,26.32
2018-09-26T09:30:22.047Z,27.27
2018-09-26T09:32:49.933Z,25.71
2018-09-26T09:35:17.828Z,25.66
2018-09-26T09:37:45.406Z,25.76
2018-09-26T09:40:12.961Z,25.88
2018-09-26T09:42:40.542Z,24.39
2018-09-26T09:45:08.114Z,24.38
2018-09-26T09:47:35.671Z,23.16
2018-09-26T09:50:03.226Z,22.71
2018-09-26T09:52:30.733Z,22.77
2018-09-26T09:54:58.282Z,23.17
2018-09-26T09:57:25.823Z,23.24
2018-09-26T09:59:53.371Z,24.52
2018-09-26T10:02:21.010Z,25.44
2018-09-26T10:04:48.485Z,25.86
2018-09-26T10:07:16.229Z,26.80
2018-09-26T10:09:43.833Z,26.55
2018-09-26T10:12:12.081Z,27.18
2018-09-26T10:14:39.703Z,27.40
2018-09-26T10:17:07.886Z,27.69
2018-09-26T10:19:35.447Z,27.70
2018-09-26T10:22:03.034Z,27.94
2018-09-26T10:24:30.602Z,27.14
2018-09-26T10:26:58.135Z,27.28
2018-09-26T10:29:25.634Z,27.69
2018-09-26T10:31:53.207Z,27.05
2018-09-26T10:34:20.702Z,27.13
2018-09-26T10:36:48.267Z,26.94
2018-09-26T10:39:15.893Z,27.25
2018-09-26T10:41:43.438Z,27.83
2018-09-26T10:44:11.251Z,28.37
2018-09-26T10:46:38.785Z,27.88
2018-09-26T10:49:06.329Z,27.30
2018-09-26T10:51:33.898Z,26.86
2018-09-26T10:54:01.414Z,27.42
2018-09-26T10:56:29.085Z,27.58
2018-09-26T10:58:56.582Z,27.43
2018-09-26T11:01:24.108Z,26.97
2018-09-26T11:03:51.619Z,26.91
2018-09-26T11:06:19.175Z,26.33
2018-09-26T11:08:46.707Z,24.71
2018-09-26T11:11:14.233Z,24.15
2018-09-26T11:13:41.782Z,24.26
2018-09-26T11:16:09.404Z,23.22
2018-09-26T11:18:37.362Z,23.04
2018-09-26T11:21:05.058Z,23.45
2018-09-26T11:23:32.566Z,23.34
2018-09-26T11:26:00.085Z,23.20
2018-09-26T11:28:27.642Z,22.52
2018-09-26T11:30:55.169Z,22.71
2018-09-26T11:33:22.704Z,22.36
2018-09-26T11:35:50.466Z,22.76
2018-09-26T11:38:18.023Z,22.59
2018-09-26T11:40:45.470Z,22.35
2018-09-26T11:43:12.979Z,22.59
2018-09-26T11:45:40.467Z,22.36
2018-09-26T11:48:07.982Z,22.43
2018-09-26T11:50:35.485Z,22.58
2018-09-26T11:53:03.318Z,22.51
2018-09-26T11:55:30.805Z,22.27
2018-09-26T11:57:58.305Z,22.25
2018-09-26T12:00:26.271Z,22.32
2018-09-26T12:02:53.767Z,22.13
2018-09-26T12:05:21.264Z,22.33
2018-09-26T12:07:48.794Z,22.32
2018-09-26T12:10:16.363Z,22.26
2018-09-26T12:12:44.199Z,22.31
2018-09-26T12:15:11.842Z,22.25
2018-09-26T12:17:39.470Z,22.03
2018-09-26T12:20:07.100Z,21.90
2018-09-26T12:22:34.636Z,21.67
2018-09-26T12:25:02.155Z,21.81
2018-09-26T12:27:29.853Z,21.80
2018-09-26T12:29:57.371Z,21.82
2018-09-26T12:32:24.882Z,21.75
2018-09-26T12:34:52.468Z,21.38
2018-09-26T12:37:19.964Z,21.47
2018-09-26T12:39:47.481Z,21.44
2018-09-26T12:42:15.050Z,21.29
2018-09-26T12:44:42.809Z,21.44
2018-09-26T12:47:10.353Z,21.59
2018-09-26T12:49:37.818Z,21.52
2018-09-26T12:52:05.853Z,21.46
2018-09-26T12:54:33.358Z,21.40
2018-09-26T12:57:00.907Z,21.18
2018-09-26T12:59:28.450Z,21.35
2018-09-26T13:01:55.972Z,21.11
2018-09-26T13:04:23.568Z,21.34
2018-09-26T13:06:51.026Z,21.12
2018-09-26T13:09:18.564Z,21.03
2018-09-26T13:11:46.430Z,21.02
2018-09-26T13:14:13.932Z,21.08
2018-09-26T13:16:41.454Z,21.11
2018-09-26T13:19:09.010Z,21.09
2018-09-26T13:21:36.521Z,21.11
2018-09-26T13:24:04.053Z,21.20
2018-09-26T13:26:31.645Z,21.04
2018-09-26T13:28:59.190Z,21.09
2018-09-26T13:31:26.847Z,21.06
2018-09-26T13:33:54.580Z,21.07
2018-09-26T13:36:22.147Z,21.00
2018-09-26T13:38:49.630Z,20.90
2018-09-26T13:41:17.235Z,20.78
2018-09-26T13:43:44.767Z,20.87
2018-09-26T13:46:12.320Z,20.75
2018-09-26T13:48:39.879Z,20.76
2018-09-26T13:51:07.514Z,20.71
2018-09-26T13:53:35.102Z,20.64
2018-09-26T13:56:02.658Z,20.67
2018-09-26T13:58:30.219Z,20.61
2018-09-26T14:00:57.810Z,20.59
2018-09-26T14:03:25.397Z,20.43
2018-09-26T14:05:52.965Z,20.45
2018-09-26T14:08:20.669Z,20.50
2018-09-26T14:10:48.263Z,20.40
2018-09-26T14:13:15.722Z,20.50
2018-09-26T14:15:43.247Z,20.63
2018-09-26T14:18:10.766Z,20.63
2018-09-26T14:20:38.337Z,20.60
2018-09-26T14:23:05.906Z,20.43
2018-09-26T14:25:33.446Z,20.30
2018-09-26T14:28:01.889Z,20.26
2018-09-26T14:30:29.530Z,20.34
2018-09-26T14:32:57.034Z,20.27
2018-09-26T14:35:24.677Z,20.23
2018-09-26T14:37:53.062Z,20.33
2018-09-26T14:40:20.615Z,20.42
2018-09-26T14:42:48.142Z,20.33
2018-09-26T14:45:15.710Z,20.22
2018-09-26T14:47:43.355Z,20.23
2018-09-26T14:50:11.032Z,20.11
2018-09-26T14:52:39.556Z,20.12
2018-09-26T14:55:07.141Z,20.07
2018-09-26T14:57:34.677Z,20.00
2018-09-26T15:00:02.219Z,20.06
2018-09-26T15:02:29.751Z,20.09
2018-09-26T15:04:57.442Z,20.15
2018-09-26T15:07:25.753Z,20.05
2018-09-26T15:09:53.473Z,20.21
2018-09-26T15:12:21.003Z,20.09
2018-09-26T15:14:48.488Z,20.14
2018-09-26T15:17:16.190Z,20.15
2018-09-26T15:19:43.754Z,20.15
2018-09-26T15:22:11.378Z,19.92
2018-09-26T15:24:38.905Z,19.96
2018-09-26T15:27:06.495Z,20.12
2018-09-26T15:29:34.511Z,20.24
2018-09-26T15:32:02.065Z,20.15
2018-09-26T15:34:29.587Z,20.08
2018-09-26T15:36:58.069Z,20.14
2018-09-26T15:39:25.631Z,19.97
2018-09-26T15:41:53.160Z,20.06
2018-09-26T15:44:20.865Z,19.99
2018-09-26T15:46:48.398Z,20.05
2018-09-26T15:49:15.883Z,19.93
2018-09-26T15:51:43.453Z,19.98
2018-09-26T15:54:11.171Z,19.96
2018-09-26T15:56:38.682Z,19.95
2018-09-26T15:59:06.242Z,19.85
2018-09-26T16:01:34.076Z,19.98
2018-09-26T16:04:01.639Z,19.81
2018-09-26T16:06:29.254Z,19.79
2018-09-26T16:08:56.963Z,19.77
2018-09-26T16:11:24.529Z,19.77
2018-09-26T16:13:52.051Z,19.70
2018-09-26T16:16:19.749Z,19.52
2018-09-26T16:18:47.258Z,19.62
2018-09-26T16:21:15.497Z,19.47
2018-09-26T16:23:43.097Z,19.53
2018-09-26T16:26:10.674Z,19.74
2018-09-26T16:28:38.182Z,19.59
2018-09-26T16:31:05.810Z,19.51
2018-09-26T16:33:33.461Z,19.45
2018-09-26T16:36:01.129Z,19.20
2018-09-26T16:38:28.779Z,19.26
2018-09-26T16:40:56.330Z,19.09
2018-09-26T16:43:23.839Z,19.02
2018-09-26T16:45:52.474Z,18.99
2018-09-26T16:48:20.241Z,18.92
2018-09-26T16:50:47.940Z,19.02
2018-09-26T16:53:15.508Z,19.23
2018-09-26T16:55:43.093Z,19.15
2018-09-26T16:58:11.290Z,19.01
2018-09-26T17:00:38.803Z,18.89
2018-09-26T17:03:06.403Z,18.49
2018-09-26T17:05:33.954Z,18.40
2018-09-26T17:08:01.579Z,18.30
2018-09-26T17:10:29.106Z,18.37
2018-09-26T17:12:56.925Z,18.06
2018-09-26T17:15:25.140Z,17.91
2018-09-26T17:17:53.448Z,17.82
2018-09-26T17:20:21.720Z,17.90
2018-09-26T17:22:49.306Z,17.82
2018-09-26T17:25:16.865Z,17.75
2018-09-26T17:27:44.446Z,17.66
2018-09-26T17:30:12.047Z,17.46
2018-09-26T17:32:39.848Z,17.25
2018-09-26T17:35:07.719Z,17.17
2018-09-26T17:37:35.354Z,17.32
2018-09-26T17:40:02.908Z,17.15
2018-09-26T17:42:30.427Z,17.07
2018-09-26T17:44:57.963Z,16.81
2018-09-26T17:47:25.511Z,16.67
2018-09-26T17:49:53.052Z,16.71
2018-09-26T17:52:20.624Z,16.62
2018-09-26T17:54:48.476Z,16.33
2018-09-26T17:57:15.958Z,16.43
2018-09-26T17:59:43.521Z,16.23
2018-09-26T18:02:11.126Z,16.01
2018-09-26T18:04:38.636Z,15.94
2018-09-26T18:07:06.186Z,15.85
2018-09-26T18:09:33.766Z,15.79
2018-09-26T18:12:01.329Z,15.73
2018-09-26T18:14:28.891Z,15.72
2018-09-26T18:16:56.462Z,15.58
2018-09-26T18:19:24.016Z,15.60
2018-09-26T18:21:51.576Z,15.66
2018-09-26T18:24:19.116Z,15.76
2018-09-26T18:26:46.770Z,15.46
2018-09-26T18:29:14.324Z,15.30
2018-09-26T18:31:41.842Z,14.99
2018-09-26T18:34:09.417Z,14.87
2018-09-26T18:36:37.016Z,14.72
2018-09-26T18:39:05.997Z,14.84
2018-09-26T18:41:33.484Z,14.85
2018-09-26T18:44:01.042Z,14.62
2018-09-26T18:46:28.654Z,14.49
2018-09-26T18:48:56.183Z,14.40
2018-09-26T18:51:23.742Z,14.18
2018-09-26T18:53:51.423Z,14.20
2018-09-26T18:56:18.981Z,14.39
2018-09-26T18:58:46.681Z,14.36
2018-09-26T19:01:14.230Z,14.23
2018-09-26T19:03:41.765Z,14.14
2018-09-26T19:06:09.365Z,14.11
2018-09-26T19:08:37.603Z,13.86
2018-09-26T19:11:05.187Z,13.70
2018-09-26T19:13:32.786Z,13.51
2018-09-26T19:16:00.325Z,13.36
2018-09-26T19:18:27.877Z,13.42
2018-09-26T19:20:55.566Z,13.39
2018-09-26T19:23:23.065Z,13.31
2018-09-26T19:25:50.618Z,13.14
2018-09-26T19:28:18.212Z,13.15
2018-09-26T19:30:45.784Z,13.20
2018-09-26T19:33:13.435Z,13.27
2018-09-26T19:35:41.167Z,13.18
2018-09-26T19:38:08.971Z,13.23
2018-09-26T19:40:36.511Z,13.09
2018-09-26T19:43:04.055Z,12.97
2018-09-26T19:45:31.601Z,12.77
2018-09-26T19:47:59.145Z,12.66
2018-09-26T19:50:26.784Z,12.53
2018-09-26T19:52:54.365Z,12.31
2018-09-26T19:55:22.027Z,12.20
2018-09-26T19:57:50.231Z,12.20
2018-09-26T20:00:17.748Z,12.20
2018-09-26T20:02:45.290Z,12.19
2018-09-26T20:05:12.937Z,12.16
2018-09-26T20:07:40.483Z,12.04
2018-09-26T20:10:08.500Z,12.03
2018-09-26T20:12:36.053Z,12.06
2018-09-26T20:15:03.684Z,11.98
2018-09-26T20:17:31.234Z,11.82
2018-09-26T20:19:58.834Z,11.85
2018-09-26T20:22:26.395Z,11.89
2018-09-26T20:24:54.026Z,11.75
2018-09-26T20:27:21.732Z,11.96
2018-09-26T20:29:49.187Z,11.84
2018-09-26T20:32:16.698Z,11.83
2018-09-26T20:34:44.247Z,11.74
2018-09-26T20:37:11.868Z,11.38
2018-09-26T20:39:39.330Z,11.38
2018-09-26T20:42:06.866Z,11.23
2018-09-26T20:44:34.803Z,11.22
2018-09-26T20:47:02.322Z,11.15
2018-09-26T20:49:29.892Z,11.01
2018-09-26T20:51:57.495Z,11.04
2018-09-26T20:54:25.145Z,11.01
2018-09-26T20:56:52.753Z,10.90
2018-09-26T20:59:20.271Z,10.85
2018-09-26T21:01:47.787Z,10.96
2018-09-26T21:04:15.360Z,10.99
2018-09-26T21:06:42.942Z,10.86
2018-09-26T21:09:11.066Z,11.06
2018-09-26T21:11:39.109Z,11.06
2018-09-26T21:14:06.630Z,11.00
2018-09-26T21:16:34.320Z,10.89
2018-09-26T21:19:01.827Z,10.73
2018-09-26T21:21:29.340Z,10.66
2018-09-26T21:23:57.465Z,10.56
2018-09-26T21:26:25.210Z,10.53
2018-09-26T21:28:52.770Z,10.42
2018-09-26T21:31:20.390Z,10.49
2018-09-26T21:33:48.011Z,10.43
2018-09-26T21:36:15.520Z,10.44
2018-09-26T21:38:43.054Z,10.46
2018-09-26T21:41:10.818Z,10.39
2018-09-26T21:43:38.323Z,10.48
2018-09-26T21:46:05.837Z,10.44
2018-09-26T21:48:33.483Z,10.42
2018-09-26T21:51:01.231Z,10.52
2018-09-26T21:53:28.834Z,10.53
2018-09-26T21:55:56.374Z,10.44
2018-09-26T21:58:23.957Z,10.43
2018-09-26T22:00:57.109Z,10.41
2018-09-26T22:03:25.094Z,10.29
2018-09-26T22:05:52.682Z,10.19
2018-09-26T22:08:20.399Z,10.18
2018-09-26T22:10:48.014Z,10.10
2018-09-26T22:13:15.615Z,10.13
2018-09-26T22:15:43.522Z,10.12
2018-09-26T22:18:11.123Z,10.17
2018-09-26T22:20:38.737Z,10.22
2018-09-26T22:23:07.145Z,10.25
2018-09-26T22:25:34.763Z,10.24
2018-09-26T22:28:02.494Z,10.13
2018-09-26T22:30:30.078Z,10.09
2018-09-26T22:32:57.691Z,10.06
2018-09-26T22:35:25.376Z,10.03
2018-09-26T22:37:52.960Z,10.02
2018-09-26T22:40:20.583Z,9.91
2018-09-26T22:42:48.221Z,9.86
2018-09-26T22:45:15.798Z,9.81
2018-09-26T22:47:43.402Z,9.74
2018-09-26T22:50:10.986Z,9.69
2018-09-26T22:52:38.550Z,9.61
2018-09-26T22:55:06.259Z,9.58
2018-09-26T22:57:33.846Z,9.55
2018-09-26T23:00:01.721Z,9.59
2018-09-26T23:02:29.346Z,9.58
2018-09-26T23:04:56.921Z,9.66
2018-09-26T23:07:24.534Z,9.62
2018-09-26T23:09:52.173Z,9.59
2018-09-26T23:12:19.773Z,9.69
2018-09-26T23:14:47.581Z,9.71
2018-09-26T23:17:15.170Z,9.60
2018-09-26T23:19:42.864Z,9.53
2018-09-26T23:22:10.474Z,9.66
2018-09-26T23:24:38.335Z,9.52
2018-09-26T23:27:05.982Z,9.47
2018-09-26T23:29:33.565Z,9.29
2018-09-26T23:32:01.196Z,9.16
2018-09-26T23:34:28.871Z,9.13
2018-09-26T23:36:56.493Z,9.18
2018-09-26T23:39:24.086Z,9.13
2018-09-26T23:41:51.778Z,9.36
2018-09-26T23:44:19.357Z,9.54
2018-09-26T23:46:46.925Z,9.40
2018-09-26T23:49:14.535Z,9.43
2018-09-26T23:51:42.378Z,9.31
2018-09-26T23:54:10.188Z,9.24
2018-09-26T23:56:37.768Z,9.20
2018-09-26T23:59:05.370Z,9.15
